createdAt,value
2022-10-13T00:03:04.380Z,9.30
2022-10-13T00:07:06.029Z,9.20
2022-10-13T00:11:29.402Z,9.20
2022-10-13T00:15:31.172Z,9.20
2022-10-13T00:19:33.823Z,9.20
2022-10-13T00:23:35.975Z,9.20
2022-10-13T00:27:37.627Z,9.20
2022-10-13T00:31:39.839Z,9.20
2022-10-13T00:35:46.872Z,9.30
2022-10-13T00:39:48.548Z,9.30
2022-10-13T00:44:31.772Z,9.30
2022-10-13T00:48:33.452Z,9.30
2022-10-13T00:52:36.812Z,9.40
2022-10-13T00:56:39.530Z,9.30
2022-10-13T01:00:42.697Z,9.40
2022-10-13T01:04:47.192Z,9.40
2022-10-13T01:08:49.088Z,9.50
2022-10-13T01:12:53.569Z,9.50
2022-10-13T01:17:15.077Z,9.50
2022-10-13T01:21:25.628Z,9.60
2022-10-13T01:25:34.955Z,9.50
2022-10-13T01:30:04.733Z,9.60
2022-10-13T01:34:23.139Z,9.60
2022-10-13T01:38:49.129Z,9.60
2022-10-13T01:43:01.068Z,9.70
2022-10-13T01:47:03.964Z,9.70
2022-10-13T01:51:09.415Z,9.70
2022-10-13T01:55:13.102Z,9.70
2022-10-13T01:59:15.282Z,9.80
2022-10-13T02:03:41.742Z,9.80
2022-10-13T02:07:51.025Z,9.80
2022-10-13T02:11:59.702Z,9.80
2022-10-13T02:16:01.942Z,9.90
2022-10-13T02:20:06.320Z,10.00
2022-10-13T02:24:08.927Z,9.90
2022-10-13T02:28:12.643Z,10.00
2022-10-13T02:32:14.490Z,10.00
2022-10-13T02:36:16.163Z,10.00
2022-10-13T02:40:18.083Z,10.00
2022-10-13T02:44:20.922Z,9.90
2022-10-13T02:48:22.627Z,10.00
2022-10-13T02:52:24.322Z,10.00
2022-10-13T02:56:26.009Z,10.00
2022-10-13T03:00:27.834Z,10.10
2022-10-13T03:04:29.782Z,10.10
2022-10-13T03:08:35.447Z,10.10
2022-10-13T03:12:37.169Z,10.10
2022-10-13T03:16:38.824Z,10.20
2022-10-13T03:20:40.546Z,10.20
2022-10-13T03:24:42.781Z,10.20
2022-10-13T03:28:49.377Z,10.30
2022-10-13T03:32:51.102Z,10.20
2022-10-13T03:36:52.804Z,10.20
2022-10-13T03:40:54.464Z,10.20
2022-10-13T03:44:56.782Z,10.20
2022-10-13T03:48:58.627Z,10.20
2022-10-13T03:53:00.365Z,10.20
2022-10-13T03:57:02.016Z,10.20
2022-10-13T04:01:06.763Z,10.30
2022-10-13T04:05:08.856Z,10.20
2022-10-13T04:09:10.753Z,10.30
2022-10-13T04:13:12.430Z,10.30
2022-10-13T04:17:14.130Z,10.30
2022-10-13T04:21:16.226Z,10.40
2022-10-13T04:25:18.109Z,10.40
2022-10-13T04:29:19.799Z,10.50
2022-10-13T04:33:21.449Z,10.40
2022-10-13T04:37:24.007Z,10.50
2022-10-13T04:41:26.000Z,10.50
2022-10-13T04:45:27.816Z,10.60
2022-10-13T04:49:29.488Z,10.60
2022-10-13T04:53:31.887Z,10.60
2022-10-13T04:57:33.555Z,10.50
2022-10-13T05:01:35.882Z,10.50
2022-10-13T05:05:37.594Z,10.50
2022-10-13T05:09:39.343Z,10.50
2022-10-13T05:13:40.991Z,10.60
2022-10-13T05:17:42.684Z,10.50
2022-10-13T05:21:44.449Z,10.50
2022-10-13T05:25:46.151Z,10.50
2022-10-13T05:29:47.787Z,10.60
2022-10-13T05:33:50.328Z,10.50
2022-10-13T05:37:52.249Z,10.70
2022-10-13T05:41:53.997Z,10.70
2022-10-13T05:45:55.743Z,10.60
2022-10-13T05:49:57.387Z,10.60
2022-10-13T05:54:09.851Z,10.60
2022-10-13T05:58:11.624Z,10.70
2022-10-13T06:02:15.934Z,10.60
2022-10-13T06:06:17.627Z,10.60
2022-10-13T06:10:36.727Z,10.50
2022-10-13T06:14:38.415Z,10.60
2022-10-13T06:18:40.121Z,10.60
2022-10-13T06:22:41.784Z,10.50
2022-10-13T06:26:43.461Z,10.50
2022-10-13T06:30:53.575Z,10.60
2022-10-13T06:34:55.187Z,10.50
2022-10-13T06:38:56.867Z,10.50
2022-10-13T06:42:58.725Z,10.80
2022-10-13T06:47:00.872Z,10.70
2022-10-13T06:51:07.417Z,10.70
2022-10-13T06:55:09.380Z,10.70
2022-10-13T06:59:11.700Z,10.80
2022-10-13T07:03:13.349Z,10.70
2022-10-13T07:07:16.141Z,11.00
2022-10-13T07:11:18.575Z,11.30
2022-10-13T07:15:20.319Z,11.20
2022-10-13T07:19:22.027Z,11.20
2022-10-13T07:23:23.833Z,11.40
2022-10-13T07:27:25.758Z,11.60
2022-10-13T07:31:27.723Z,11.60
2022-10-13T07:35:30.855Z,11.60
2022-10-13T07:39:32.749Z,11.60
2022-10-13T07:43:34.518Z,11.70
2022-10-13T07:47:36.320Z,11.70
2022-10-13T07:51:38.012Z,11.70
2022-10-13T07:55:39.685Z,11.90
2022-10-13T07:59:41.400Z,12.00
2022-10-13T08:03:47.227Z,12.20
2022-10-13T08:07:54.699Z,12.40
2022-10-13T08:12:00.989Z,12.50
2022-10-13T08:16:03.980Z,12.70
2022-10-13T08:20:06.889Z,12.90
2022-10-13T08:24:14.010Z,13.00
2022-10-13T08:28:17.944Z,13.10
2022-10-13T08:32:21.188Z,13.20
2022-10-13T08:36:23.273Z,13.20
2022-10-13T08:40:25.069Z,13.10
2022-10-13T08:49:00.619Z,13.20
2022-10-13T08:53:13.768Z,13.20
2022-10-13T08:57:15.652Z,13.20
2022-10-13T09:01:23.731Z,13.30
2022-10-13T09:05:37.636Z,13.40
2022-10-13T09:09:39.448Z,13.60
2022-10-13T09:13:41.206Z,13.90
2022-10-13T09:17:42.877Z,14.10
2022-10-13T09:21:44.625Z,14.10
2022-10-13T09:25:51.385Z,14.30
2022-10-13T09:29:53.060Z,14.40
2022-10-13T09:34:18.712Z,14.60
2022-10-13T09:38:25.024Z,15.10
2022-10-13T09:42:28.825Z,15.70
2022-10-13T09:46:38.520Z,16.00
2022-10-13T09:50:49.206Z,16.70
2022-10-13T09:54:53.331Z,17.00
2022-10-13T09:59:27.456Z,17.70
2022-10-13T10:03:35.333Z,17.70
2022-10-13T10:07:37.140Z,17.20
2022-10-13T10:11:43.863Z,17.00
2022-10-13T10:15:55.968Z,16.60
2022-10-13T10:20:39.212Z,16.40
2022-10-13T10:24:55.801Z,16.40
2022-10-13T10:29:19.568Z,16.20
2022-10-13T10:33:30.008Z,16.10
2022-10-13T10:37:38.640Z,16.00
2022-10-13T10:42:03.408Z,16.00
2022-10-13T10:46:12.657Z,16.00
2022-10-13T10:50:16.824Z,16.00
2022-10-13T10:54:39.791Z,16.00
2022-10-13T10:59:07.832Z,16.10
2022-10-13T11:03:34.884Z,16.10
2022-10-13T11:07:39.589Z,16.20
2022-10-13T11:11:42.859Z,16.20
2022-10-13T11:15:45.906Z,16.20
2022-10-13T11:19:48.476Z,16.20
2022-10-13T11:23:50.496Z,16.30
2022-10-13T11:27:52.257Z,16.30
2022-10-13T11:31:54.967Z,16.30
2022-10-13T11:35:56.681Z,16.30
2022-10-13T11:40:03.937Z,16.10
2022-10-13T11:44:19.889Z,16.10
2022-10-13T11:48:48.734Z,16.10
2022-10-13T11:53:20.204Z,16.10
2022-10-13T11:57:26.899Z,16.00
2022-10-13T12:01:28.721Z,15.90
2022-10-13T12:05:31.795Z,16.00
2022-10-13T12:09:34.466Z,15.80
2022-10-13T12:13:36.867Z,15.70
2022-10-13T12:17:38.890Z,15.50
2022-10-13T12:21:51.726Z,15.40
2022-10-13T12:25:58.184Z,15.40
2022-10-13T12:30:01.480Z,15.30
2022-10-13T12:34:03.899Z,15.30
2022-10-13T12:38:15.629Z,15.10
2022-10-13T12:42:18.319Z,15.10
2022-10-13T12:46:47.341Z,15.10
2022-10-13T12:50:49.043Z,15.00
2022-10-13T12:54:55.759Z,15.10
2022-10-13T12:58:58.068Z,15.20
2022-10-13T13:03:01.042Z,15.30
2022-10-13T13:07:04.976Z,15.50
2022-10-13T13:11:19.316Z,15.70
2022-10-13T13:15:37.544Z,15.70
2022-10-13T13:19:43.648Z,15.60
2022-10-13T13:23:52.750Z,15.50
2022-10-13T13:27:55.824Z,15.50
2022-10-13T13:31:57.488Z,15.50
2022-10-13T13:35:59.264Z,15.30
2022-10-13T13:40:01.510Z,15.40
2022-10-13T13:44:03.176Z,15.50
2022-10-13T13:48:05.014Z,15.50
2022-10-13T13:52:06.658Z,15.50
2022-10-13T13:56:19.484Z,15.70
2022-10-13T14:00:21.527Z,15.60
2022-10-13T14:04:23.347Z,15.60
2022-10-13T14:08:25.045Z,15.50
2022-10-13T14:12:26.719Z,15.50
2022-10-13T14:16:28.785Z,15.30
2022-10-13T14:20:30.483Z,15.20
2022-10-13T14:24:32.223Z,15.00
2022-10-13T14:28:34.003Z,14.80
2022-10-13T14:32:39.012Z,14.60
2022-10-13T14:36:40.700Z,14.60
2022-10-13T14:40:42.380Z,14.50
2022-10-13T14:44:44.195Z,14.40
2022-10-13T14:48:45.897Z,14.50
2022-10-13T14:52:47.592Z,14.50
2022-10-13T14:56:49.336Z,14.60
2022-10-13T15:00:51.893Z,14.60
2022-10-13T15:04:53.532Z,14.60
2022-10-13T15:08:55.629Z,14.60
2022-10-13T15:12:57.396Z,14.60
2022-10-13T15:16:59.084Z,14.50
2022-10-13T15:21:00.769Z,14.50
2022-10-13T15:25:04.342Z,14.50
2022-10-13T15:29:06.092Z,14.50
2022-10-13T15:33:07.745Z,14.40
2022-10-13T15:37:09.418Z,14.30
2022-10-13T15:41:11.996Z,14.20
2022-10-13T15:45:14.288Z,14.20
2022-10-13T15:49:15.940Z,14.10
2022-10-13T15:53:18.029Z,14.00
2022-10-13T15:57:19.714Z,14.00
2022-10-13T16:01:21.455Z,14.00
2022-10-13T16:05:23.214Z,13.90
2022-10-13T16:09:24.922Z,13.90
2022-10-13T16:13:26.612Z,13.80
2022-10-13T16:17:28.280Z,13.80
2022-10-13T16:21:30.027Z,13.70
2022-10-13T16:25:32.021Z,13.70
2022-10-13T16:29:33.723Z,13.70
2022-10-13T16:33:36.341Z,13.80
2022-10-13T16:37:38.055Z,13.70
2022-10-13T16:41:40.381Z,13.70
2022-10-13T16:45:58.998Z,13.70
2022-10-13T16:50:01.721Z,13.80
2022-10-13T16:54:04.552Z,13.70
2022-10-13T16:58:06.436Z,13.70
2022-10-13T17:02:15.851Z,13.60
2022-10-13T17:06:19.620Z,13.60
2022-10-13T17:10:21.718Z,13.40
2022-10-13T17:14:23.414Z,13.40
2022-10-13T17:18:26.971Z,13.30
2022-10-13T17:22:28.596Z,13.30
2022-10-13T17:26:30.284Z,13.20
2022-10-13T17:30:31.954Z,13.30
2022-10-13T17:34:35.392Z,13.30
2022-10-13T17:38:37.099Z,13.30
2022-10-13T17:42:38.812Z,13.20
2022-10-13T17:46:40.485Z,13.30
2022-10-13T17:50:42.183Z,13.20
2022-10-13T17:54:43.902Z,13.20
2022-10-13T17:58:46.895Z,13.20
2022-10-13T18:02:48.681Z,13.20
2022-10-13T18:06:50.435Z,13.20
2022-10-13T18:11:08.627Z,13.20
2022-10-13T18:15:10.601Z,13.10
2022-10-13T18:19:12.808Z,13.10
2022-10-13T18:23:14.814Z,13.10
2022-10-13T18:27:16.479Z,13.20
2022-10-13T18:31:21.229Z,13.10
2022-10-13T18:35:23.004Z,13.00
2022-10-13T18:39:26.756Z,13.00
2022-10-13T18:43:30.305Z,13.00
2022-10-13T18:47:32.055Z,12.90
2022-10-13T18:51:36.312Z,13.00
2022-10-13T18:55:42.621Z,13.00
2022-10-13T18:59:44.293Z,13.00
2022-10-13T19:03:46.980Z,12.90
2022-10-13T19:07:48.657Z,12.90
2022-10-13T19:11:50.366Z,12.80
2022-10-13T19:15:59.790Z,13.00
2022-10-13T19:20:01.594Z,13.00
2022-10-13T19:24:03.684Z,13.00
2022-10-13T19:28:05.378Z,13.00
2022-10-13T19:32:07.693Z,13.00
2022-10-13T19:36:10.607Z,13.00
2022-10-13T19:40:12.264Z,13.00
2022-10-13T19:44:15.220Z,13.00
2022-10-13T19:48:16.905Z,13.00
2022-10-13T19:52:18.672Z,12.90
2022-10-13T19:56:34.047Z,12.90
2022-10-13T20:00:36.359Z,12.80
2022-10-13T20:04:38.051Z,12.80
2022-10-13T20:08:40.055Z,12.80
2022-10-13T20:12:41.742Z,12.80
2022-10-13T20:16:44.188Z,12.70
2022-10-13T20:20:45.916Z,12.70
2022-10-13T20:24:47.654Z,12.70
2022-10-13T20:28:50.949Z,12.70
2022-10-13T20:32:52.655Z,12.60
2022-10-13T20:36:54.329Z,12.70
2022-10-13T20:41:08.983Z,12.50
2022-10-13T20:45:10.726Z,12.50
2022-10-13T20:49:13.430Z,12.40
2022-10-13T20:53:15.357Z,12.40
2022-10-13T20:57:17.058Z,12.50
2022-10-13T21:01:21.036Z,12.40
2022-10-13T21:05:22.866Z,12.40
2022-10-13T21:09:24.578Z,12.40
2022-10-13T21:13:26.761Z,12.30
2022-10-13T21:17:29.863Z,12.30
2022-10-13T21:21:33.943Z,12.30
2022-10-13T21:25:35.764Z,12.30
2022-10-13T21:29:37.574Z,12.20
2022-10-13T21:33:40.391Z,12.20
2022-10-13T21:37:42.137Z,12.20
2022-10-13T21:41:43.904Z,12.20
2022-10-13T21:45:45.580Z,12.10
2022-10-13T21:49:47.284Z,12.10
2022-10-13T21:53:54.478Z,12.20
2022-10-13T21:57:59.619Z,12.20
2022-10-13T22:02:03.315Z,12.20
2022-10-13T22:06:15.914Z,12.20
2022-10-13T22:10:20.068Z,12.20
2022-10-13T22:14:21.765Z,12.20
2022-10-13T22:18:23.413Z,12.20
2022-10-13T22:22:30.754Z,12.20
2022-10-13T22:26:35.156Z,12.20
2022-10-13T22:30:37.689Z,12.20
2022-10-13T22:34:39.427Z,12.20
2022-10-13T22:38:41.326Z,12.20
2022-10-13T22:42:43.000Z,12.20
2022-10-13T22:46:44.784Z,12.20
2022-10-13T22:50:46.532Z,12.20
2022-10-13T22:54:48.189Z,12.20
2022-10-13T22:58:51.728Z,12.20
2022-10-13T23:02:53.457Z,12.20
2022-10-13T23:06:55.240Z,12.20
2022-10-13T23:10:57.820Z,12.20
2022-10-13T23:14:59.484Z,12.20
2022-10-13T23:19:01.457Z,12.20
2022-10-13T23:23:03.119Z,12.30
2022-10-13T23:27:04.827Z,12.20
2022-10-13T23:31:10.989Z,12.20
2022-10-13T23:35:12.828Z,12.20
2022-10-13T23:39:14.534Z,12.30
2022-10-13T23:43:16.398Z,12.30
2022-10-13T23:47:18.278Z,12.30
2022-10-13T23:51:23.059Z,12.40
2022-10-13T23:55:24.772Z,12.40
2022-10-13T23:59:26.444Z,12.40
